Time;durP1;ratioP1;P1;durP2;ratioP2;P2;SDS_P1;SDS_P2;PMS_P1;PMS_P2;Temp;Humidity;BMP_temperature;BMP_pressure;BME280_temperature;BME280_humidity;BME280_pressure;Samples;Min_cycle;Max_cycle;Signal;HPM_P1;HPM_P2
2023/06/11 00:00:30;;;;;;;8.57;8.38;;;;;;;-141.02;100.00;103714.66;5113632;28;20284;-54
2023/06/11 00:02:57;;;;;;;8.38;8.18;;;;;;;-141.02;100.00;104214.97;5113625;28;20203;-54
2023/06/11 00:05:27;;;;;;;8.00;7.80;;;;;;;-141.02;100.00;104465.16;5113836;28;20189;-54
2023/06/11 00:07:56;;;;;;;8.05;7.85;;;;;;;-141.02;100.00;104715.34;5113739;28;20674;-71
2023/06/11 00:10:23;;;;;;;8.30;8.10;;;;;;;-141.02;100.00;104965.56;5113450;28;20200;-54
2023/06/11 00:12:50;;;;;;;7.90;7.70;;;;;;;-141.02;100.00;105215.78;5113446;28;20192;-54
2023/06/11 00:15:18;;;;;;;7.80;7.60;;;;;;;-141.02;100.00;105215.78;5113419;28;20200;-54
2023/06/11 00:17:45;;;;;;;7.53;7.32;;;;;;;-141.02;100.00;105466.03;5113308;28;20197;-54
2023/06/11 00:20:14;;;;;;;7.60;7.40;;;;;;;-141.02;100.00;105466.03;5113529;28;20197;-54
2023/06/11 00:22:41;;;;;;;8.10;7.90;;;;;;;-141.02;100.00;105215.78;5113209;28;20700;-54
2023/06/11 00:25:10;;;;;;;8.30;8.10;;;;;;;-141.02;100.00;105215.78;5113384;28;20197;-55
2023/06/11 00:27:37;;;;;;;8.23;8.02;;;;;;;-141.02;100.00;104965.56;5113361;28;20224;-54
2023/06/11 00:30:05;;;;;;;8.18;7.97;;;;;;;-141.02;100.00;105215.78;5113444;28;20189;-54
2023/06/11 00:32:35;;;;;;;7.70;7.50;;;;;;;-141.02;100.00;104965.56;5113652;28;20189;-54
2023/06/11 00:35:06;;;;;;;7.90;7.70;;;;;;;-141.02;100.00;104715.34;5113359;28;20207;-55
2023/06/11 00:37:34;;;;;;;8.30;8.10;;;;;;;-141.02;100.00;104465.16;5113030;27;20606;-54
2023/06/11 00:40:01;;;;;;;8.30;8.10;;;;;;;-141.02;100.00;104214.97;5112984;28;20372;-54
2023/06/11 00:42:28;;;;;;;8.80;8.60;;;;;;;-141.02;100.00;104214.97;5113069;28;20603;-55
2023/06/11 00:44:55;;;;;;;8.70;8.50;;;;;;;-141.02;100.00;104214.97;5112924;28;20189;-54
2023/06/11 00:47:22;;;;;;;8.80;8.60;;;;;;;-141.02;100.00;104214.97;5113025;28;20640;-55
2023/06/11 00:49:51;;;;;;;9.05;8.85;;;;;;;-141.02;100.00;104214.97;5112761;28;20624;-55
2023/06/11 00:52:19;;;;;;;8.48;8.27;;;;;;;-141.02;100.00;104465.16;5112757;28;20189;-55
2023/06/11 00:54:47;;;;;;;8.35;8.15;;;;;;;-141.02;100.00;104465.16;5112728;28;20746;-54
2023/06/11 00:57:17;;;;;;;8.65;8.45;;;;;;;-141.02;100.00;104715.34;5113404;28;20232;-55
2023/06/11 00:59:48;;;;;;;8.20;8.00;;;;;;;-141.02;100.00;104715.34;5113001;28;20185;-55
2023/06/11 01:02:21;;;;;;;7.88;7.68;;;;;;;-141.02;100.00;104965.56;5112663;28;20189;-55
2023/06/11 01:04:51;;;;;;;7.32;7.13;;;;;;;-141.02;100.00;105215.78;5112940;28;20189;-54
2023/06/11 01:07:22;;;;;;;7.53;7.32;;;;;;;-141.02;100.00;105466.03;5112995;28;20291;-54
2023/06/11 01:09:50;;;;;;;7.38;7.18;;;;;;;-141.02;100.00;105716.31;5112858;28;20643;-55
2023/06/11 01:12:17;;;;;;;7.47;7.28;;;;;;;-141.02;100.00;105716.31;5112836;28;20216;-55
2023/06/11 01:14:43;;;;;;;7.30;7.10;;;;;;;-141.02;100.00;105716.31;5112473;28;20189;-54
2023/06/11 01:17:15;;;;;;;7.30;7.10;;;;;;;-141.02;100.00;105716.31;5112738;28;20280;-55
2023/06/11 01:20:10;;;;;;;7.75;7.55;;;;;;;-141.02;100.00;105716.31;5112749;28;20221;-54
2023/06/11 01:22:55;;;;;;;8.10;7.90;;;;;;;-141.02;100.00;105215.78;5112468;28;20189;-54
2023/06/11 01:25:31;;;;;;;8.80;8.60;;;;;;;-141.02;100.00;104965.56;5115921;28;20639;-54
2023/06/11 01:28:04;;;;;;;8.70;8.50;;;;;;;-141.02;100.00;104965.56;5116879;28;20658;-54
2023/06/11 01:30:33;;;;;;;8.50;8.30;;;;;;;-141.02;100.00;104965.56;5116913;28;20228;-54
2023/06/11 01:33:02;;;;;;;8.60;8.40;;;;;;;-141.02;100.00;104965.56;5116868;28;20193;-54
2023/06/11 01:35:29;;;;;;;8.70;8.50;;;;;;;-141.02;100.00;104965.56;5116459;28;20189;-55
2023/06/11 01:37:58;;;;;;;8.63;8.43;;;;;;;-141.02;100.00;105215.78;5116750;28;20286;-55
2023/06/11 01:40:25;;;;;;;8.30;8.10;;;;;;;-141.02;100.00;105215.78;5116635;28;20694;-54
2023/06/11 01:43:36;;;;;;;8.80;8.60;;;;;;;-141.02;100.00;104965.56;5108368;28;20252;-54
2023/06/11 01:46:05;;;;;;;8.45;8.25;;;;;;;-141.02;100.00;104715.34;5075971;28;20653;-54
2023/06/11 01:48:32;;;;;;;8.10;7.90;;;;;;;-141.02;100.00;104715.34;5075803;28;20291;-55
2023/06/11 01:51:00;;;;;;;8.00;7.80;;;;;;;-141.02;100.00;104965.56;5075857;28;20253;-71
2023/06/11 01:53:27;;;;;;;8.77;8.57;;;;;;;-141.02;100.00;104965.56;5075752;28;20273;-55
2023/06/11 01:55:56;;;;;;;8.40;8.20;;;;;;;-141.02;100.00;104715.34;5075736;28;20205;-54
2023/06/11 01:58:23;;;;;;;8.50;8.30;;;;;;;-141.02;100.00;104715.34;5075370;28;20194;-55
2023/06/11 02:00:50;;;;;;;8.10;7.90;;;;;;;-141.02;100.00;104715.34;5075313;28;20285;-70
2023/06/11 02:03:19;;;;;;;8.32;8.13;;;;;;;-141.02;100.00;104715.34;5075321;28;20191;-54
2023/06/11 02:05:46;;;;;;;8.60;8.40;;;;;;;-141.02;100.00;104715.34;5075519;28;20282;-67
2023/06/11 02:08:12;;;;;;;8.70;8.50;;;;;;;-141.02;100.00;104715.34;5075102;28;20346;-54
2023/06/11 02:10:39;;;;;;;7.93;7.72;;;;;;;-141.02;100.00;104715.34;5075386;28;20226;-55
2023/06/11 02:13:06;;;;;;;8.10;7.90;;;;;;;-141.02;100.00;104465.16;5075386;28;20248;-54
2023/06/11 02:15:33;;;;;;;8.90;8.70;;;;;;;-141.02;100.00;104214.97;5075368;28;20277;-54
2023/06/11 02:18:00;;;;;;;8.55;8.35;;;;;;;-141.02;100.00;104214.97;5075203;28;20289;-54
2023/06/11 02:20:29;;;;;;;8.55;8.35;;;;;;;-141.02;100.00;104214.97;5075481;28;20278;-55
2023/06/11 02:22:56;;;;;;;8.75;8.55;;;;;;;-141.02;100.00;104465.16;5074942;28;20230;-70
2023/06/11 02:25:23;;;;;;;8.30;8.10;;;;;;;-141.02;100.00;104465.16;5074884;28;20755;-55
2023/06/11 02:27:50;;;;;;;8.43;8.23;;;;;;;-141.02;100.00;104715.34;5075112;28;20278;-55
2023/06/11 02:30:17;;;;;;;8.40;8.20;;;;;;;-141.02;100.00;104965.56;5074772;28;20198;-55
2023/06/11 02:32:46;;;;;;;8.80;8.60;;;;;;;-141.02;100.00;104965.56;5074751;28;20603;-54
2023/06/11 02:35:13;;;;;;;8.68;8.48;;;;;;;-141.02;100.00;105215.78;5074607;28;20294;-55
2023/06/11 02:37:41;;;;;;;8.55;8.35;;;;;;;-141.02;100.00;105215.78;5074657;28;20233;-55
2023/06/11 02:40:09;;;;;;;8.90;8.70;;;;;;;-141.02;100.00;105466.03;5074974;28;20257;-55
2023/06/11 02:42:36;;;;;;;8.80;8.60;;;;;;;-141.02;100.00;105716.31;5074540;28;20642;-55
2023/06/11 02:45:04;;;;;;;8.20;8.00;;;;;;;-141.02;100.00;105716.31;5098836;28;20309;-54
2023/06/11 02:47:31;;;;;;;7.93;7.72;;;;;;;-141.02;100.00;105966.59;5115102;28;20197;-55
2023/06/11 02:49:58;;;;;;;7.90;7.70;;;;;;;-141.02;100.00;105966.59;5115593;28;20258;-71
2023/06/11 02:52:25;;;;;;;8.00;7.80;;;;;;;-141.02;100.00;106216.91;5115016;28;20250;-54
2023/06/11 02:54:53;;;;;;;8.00;7.80;;;;;;;-141.02;100.00;106216.91;5115020;28;20193;-55
2023/06/11 02:57:20;;;;;;;8.30;8.10;;;;;;;-141.02;100.00;106216.91;5114961;28;20231;-55
2023/06/11 02:59:47;;;;;;;9.40;9.10;;;;;;;-141.02;100.00;105966.59;5115155;28;20193;-55
2023/06/11 03:02:15;;;;;;;9.00;8.80;;;;;;;-141.02;100.00;105966.59;5115184;28;20221;-54
2023/06/11 03:04:42;;;;;;;8.40;8.20;;;;;;;-141.02;100.00;105966.59;5114715;28;20196;-54
2023/06/11 03:07:09;;;;;;;8.73;8.52;;;;;;;-141.02;100.00;105966.59;5115012;28;20671;-55
2023/06/11 03:09:36;;;;;;;8.65;8.45;;;;;;;-141.02;100.00;105716.31;5114936;27;20270;-55
2023/06/11 03:12:06;;;;;;;8.60;8.40;;;;;;;-141.02;100.00;105716.31;5114603;28;20250;-55
2023/06/11 03:14:33;;;;;;;8.70;8.50;;;;;;;-141.02;100.00;105716.31;5114958;28;20185;-55
2023/06/11 03:17:00;;;;;;;8.70;8.50;;;;;;;-141.02;100.00;105966.59;5114847;28;20280;-55
2023/06/11 03:19:27;;;;;;;8.30;8.10;;;;;;;-141.02;100.00;105966.59;5114484;28;20680;-54
2023/06/11 03:21:54;;;;;;;8.50;8.30;;;;;;;-141.02;100.00;105966.59;5114762;28;20602;-55
2023/06/11 03:24:21;;;;;;;8.80;8.60;;;;;;;-141.02;100.00;105966.59;5114790;28;20203;-71
2023/06/11 03:26:48;;;;;;;8.90;8.70;;;;;;;-141.02;100.00;106216.91;5114710;28;20276;-55
2023/06/11 03:29:17;;;;;;;8.90;8.70;;;;;;;-141.02;100.00;106216.91;5114226;28;20785;-55
2023/06/11 03:31:44;;;;;;;8.60;8.40;;;;;;;-141.02;100.00;106216.91;5114487;28;20284;-54
2023/06/11 03:34:11;;;;;;;8.90;8.70;;;;;;;-141.02;100.00;106216.91;5114466;28;20201;-55
2023/06/11 03:36:38;;;;;;;9.50;9.20;;;;;;;-141.02;100.00;106216.91;5114444;28;20738;-54
2023/06/11 03:39:05;;;;;;;10.00;9.70;;;;;;;-141.02;100.00;105966.59;5114403;28;20242;-55
2023/06/11 03:41:32;;;;;;;9.10;8.90;;;;;;;-141.02;100.00;105966.59;5114042;28;20194;-55
2023/06/11 03:43:58;;;;;;;8.82;8.63;;;;;;;-141.02;100.00;106216.91;5114068;28;20221;-55
2023/06/11 03:46:27;;;;;;;9.30;9.00;;;;;;;-141.02;100.00;106216.91;5113938;28;20213;-55
2023/06/11 03:48:54;;;;;;;9.05;8.85;;;;;;;-141.02;100.00;106467.22;5114052;28;20225;-55
2023/06/11 03:51:21;;;;;;;9.23;8.98;;;;;;;-141.02;100.00;106467.22;5114205;28;20721;-55
2023/06/11 03:53:48;;;;;;;8.80;8.60;;;;;;;-141.02;100.00;106467.22;5114090;28;20271;-55
2023/06/11 03:56:15;;;;;;;8.77;8.57;;;;;;;-141.02;100.00;106467.22;5113784;28;20690;-55
2023/06/11 03:58:42;;;;;;;9.30;9.05;;;;;;;-141.02;100.00;106467.22;5113721;28;20284;-54
2023/06/11 04:01:09;;;;;;;9.18;8.98;;;;;;;-141.02;100.00;106467.22;5113730;28;20622;-55
2023/06/11 04:03:37;;;;;;;9.00;8.80;;;;;;;-141.02;100.00;106467.22;5113944;28;20280;-57
2023/06/11 04:06:04;;;;;;;9.63;9.32;;;;;;;-141.02;100.00;106467.22;5113903;28;20198;-55
2023/06/11 04:08:31;;;;;;;9.73;9.43;;;;;;;-141.02;100.00;106467.22;5113488;28;20221;-55
2023/06/11 04:10:58;;;;;;;9.93;9.63;;;;;;;-141.02;100.00;106467.22;5113850;28;20197;-55
2023/06/11 04:13:25;;;;;;;10.80;10.50;;;;;;;-141.02;100.00;106467.22;5113498;28;20288;-55
2023/06/11 04:15:52;;;;;;;10.70;10.40;;;;;;;-141.02;100.00;106216.91;5113746;28;20262;-55
2023/06/11 04:18:19;;;;;;;10.80;10.50;;;;;;;-141.02;100.00;106216.91;5113356;28;20240;-55
2023/06/11 04:20:48;;;;;;;11.60;11.30;;;;;;;-141.02;100.00;106216.91;5113649;28;20280;-55
2023/06/11 04:23:14;;;;;;;12.20;11.80;;;;;;;-141.02;100.00;105966.59;5113544;28;20209;-55
2023/06/11 04:25:43;;;;;;;11.90;11.50;;;;;;;-141.02;100.00;105966.59;5113562;28;20275;-55
2023/06/11 04:28:10;;;;;;;12.80;12.40;;;;;;;-141.02;100.00;105716.31;5113198;28;20193;-70
2023/06/11 04:30:39;;;;;;;12.77;12.38;;;;;;;-141.02;100.00;105716.31;5113679;28;20265;-55
2023/06/11 04:33:07;;;;;;;12.55;12.15;;;;;;;-141.02;100.00;105466.03;5113381;28;20265;-55
2023/06/11 04:35:35;;;;;;;12.70;12.30;;;;;;;-141.02;100.00;105215.78;5113060;28;20193;-58
2023/06/11 04:38:04;;;;;;;12.82;12.43;;;;;;;-141.02;100.00;105215.78;5113090;28;20255;-71
2023/06/11 04:40:33;;;;;;;13.25;12.85;;;;;;;-141.02;100.00;105215.78;5112957;28;20262;-71
2023/06/11 04:43:01;;;;;;;14.30;13.80;;;;;;;-141.02;100.00;105215.78;5112985;28;20189;-71
2023/06/11 04:45:30;;;;;;;14.63;14.13;;;;;;;-141.02;100.00;104715.34;5112900;28;20315;-68
2023/06/11 04:47:58;;;;;;;14.80;14.30;;;;;;;-141.02;100.00;104465.16;5113244;28;20298;-55
2023/06/11 04:50:25;;;;;;;15.13;14.63;;;;;;;-141.02;100.00;104214.97;5112688;28;20228;-55
2023/06/11 04:52:52;;;;;;;15.10;14.60;;;;;;;-141.02;100.00;104214.97;5113086;28;20231;-55
2023/06/11 04:55:24;;;;;;;15.40;14.80;;;;;;;-141.02;100.00;103714.66;5112753;28;20189;-55
2023/06/11 04:57:51;;;;;;;14.68;14.18;;;;;;;-141.02;100.00;103964.81;5112676;28;20272;-71
2023/06/11 05:00:19;;;;;;;13.50;13.10;;;;;;;-141.02;100.00;103714.66;5112640;28;20695;-70
2023/06/11 05:02:45;;;;;;;13.02;12.63;;;;;;;-141.02;100.00;103714.66;5112649;28;20225;-56
2023/06/11 05:05:13;;;;;;;13.60;13.20;;;;;;;-141.02;100.00;103714.66;5112872;28;20247;-55
2023/06/11 05:07:41;;;;;;;12.70;12.30;;;;;;;-141.02;100.00;103714.66;5112865;28;20613;-56
2023/06/11 05:10:09;;;;;;;12.80;12.40;;;;;;;-141.02;100.00;103964.81;5112604;28;20716;-71
2023/06/11 05:12:37;;;;;;;13.27;12.88;;;;;;;-141.02;100.00;103964.81;5112589;28;20228;-55
2023/06/11 05:15:05;;;;;;;13.00;12.60;;;;;;;-141.02;100.00;104465.16;5112464;28;20845;-71
2023/06/11 05:17:33;;;;;;;14.23;13.73;;;;;;;-141.02;100.00;104214.97;5112832;28;20251;-71
2023/06/11 05:20:00;;;;;;;16.40;15.80;;;;;;;-141.02;100.00;103464.53;5112509;28;20189;-71
2023/06/11 05:22:27;;;;;;;15.25;14.75;;;;;;;-141.02;100.00;102964.34;5113009;28;20201;-55
2023/06/11 05:24:54;;;;;;;15.45;14.95;;;;;;;-141.02;100.00;102964.34;5112423;28;20583;-71
2023/06/11 05:27:21;;;;;;;14.68;14.18;;;;;;;-141.02;100.00;103214.44;5112611;28;20246;-70
2023/06/11 05:29:50;;;;;;;15.13;14.55;;;;;;;-141.02;100.00;102964.34;5112633;28;20221;-71
2023/06/11 05:32:17;;;;;;;14.88;14.38;;;;;;;-141.02;100.00;102714.25;5112540;28;20228;-56
2023/06/11 05:34:44;;;;;;;14.77;14.27;;;;;;;-141.02;100.00;102214.16;5112609;28;20284;-55
2023/06/11 05:37:11;;;;;;;14.70;14.20;;;;;;;-141.02;100.00;102214.16;5112520;28;20197;-70
2023/06/11 05:39:38;;;;;;;14.38;13.88;;;;;;;-141.02;100.00;101964.16;5112560;28;20272;-70
2023/06/11 05:42:06;;;;;;;14.38;13.88;;;;;;;-141.02;100.00;101964.16;5112255;28;20651;-55
2023/06/11 05:44:33;;;;;;;14.18;13.68;;;;;;;-141.02;100.00;102214.16;5112065;28;20229;-55
2023/06/11 05:47:02;;;;;;;14.38;13.88;;;;;;;-141.02;100.00;101714.16;5112248;28;20695;-70
2023/06/11 05:49:28;;;;;;;14.38;13.88;;;;;;;-141.02;100.00;101714.16;5112411;28;20229;-71
2023/06/11 05:51:55;;;;;;;14.68;14.18;;;;;;;-141.02;100.00;101714.16;5112371;28;20200;-71
2023/06/11 05:54:22;;;;;;;14.75;14.25;;;;;;;-141.02;100.00;101714.16;5112717;28;20200;-55
2023/06/11 05:56:49;;;;;;;14.38;13.88;;;;;;;-141.02;100.00;101714.16;5112736;28;20283;-71
2023/06/11 05:59:16;;;;;;;14.38;13.88;;;;;;;-141.02;100.00;101464.19;5112135;28;20676;-55
2023/06/11 06:01:45;;;;;;;15.07;14.48;;;;;;;-141.02;100.00;101214.22;5112353;28;20276;-55
2023/06/11 06:04:15;;;;;;;14.65;14.05;;;;;;;-141.02;100.00;101214.22;5113226;28;20262;-56
2023/06/11 06:06:42;;;;;;;15.10;14.50;;;;;;;-141.02;100.00;100714.34;5112069;28;20185;-71
2023/06/11 06:09:09;;;;;;;14.65;14.15;;;;;;;-141.02;100.00;101464.19;5112048;28;20227;-71
2023/06/11 06:11:36;;;;;;;15.02;14.43;;;;;;;-141.02;100.00;100464.44;5115755;28;20205;-55
2023/06/11 06:14:03;;;;;;;14.50;14.00;;;;;;;-141.02;100.00;100964.25;5116125;28;20201;-71
2023/06/11 06:16:31;;;;;;;14.07;13.57;;;;;;;-141.02;100.00;100714.34;5115814;28;20197;-55
2023/06/11 06:18:58;;;;;;;14.70;14.10;;;;;;;-141.02;100.00;100464.44;5116010;28;20250;-55
2023/06/11 06:21:26;;;;;;;14.07;13.57;;;;;;;-141.02;100.00;99964.66;5115996;28;20284;-55
2023/06/11 06:23:53;;;;;;;14.98;14.38;;;;;;;-141.02;100.00;99964.66;5115908;28;20197;-70
2023/06/11 06:26:22;;;;;;;14.48;13.98;;;;;;;-141.02;100.00;100214.53;5115612;28;20292;-71
2023/06/11 06:28:50;;;;;;;14.77;14.18;;;;;;;-141.02;100.00;99714.81;5115419;28;20193;-56
2023/06/11 06:31:17;;;;;;;14.52;14.02;;;;;;;-141.02;100.00;99714.81;5115714;28;20734;-55
2023/06/11 06:33:44;;;;;;;15.15;14.55;;;;;;;-141.02;100.00;99215.16;5115774;28;20200;-55
2023/06/11 06:36:12;;;;;;;14.95;14.35;;;;;;;-141.02;100.00;99464.97;5115660;28;20197;-55
2023/06/11 06:38:40;;;;;;;15.48;14.88;;;;;;;-141.02;100.00;99464.97;5115342;28;20189;-55
2023/06/11 06:41:07;;;;;;;15.18;14.57;;;;;;;-141.02;100.00;99964.66;5115482;28;20729;-56
2023/06/11 06:43:35;;;;;;;16.00;15.30;;;;;;;-141.02;99.93;99215.16;5115256;28;20209;-55
2023/06/11 06:46:02;;;;;;;15.38;14.77;;;;;;;-141.02;100.00;99464.97;5115249;28;20225;-55
2023/06/11 06:48:29;;;;;;;15.77;15.07;;;;;;;-141.02;97.52;98715.56;5115372;28;20216;-55
2023/06/11 06:50:56;;;;;;;16.30;15.60;;;;;;;-141.02;97.25;98715.56;5115004;28;20732;-55
2023/06/11 06:53:23;;;;;;;16.25;15.55;;;;;;;-141.02;95.82;98216.03;5115532;28;20272;-55
2023/06/11 06:55:51;;;;;;;16.00;15.30;;;;;;;-141.02;99.09;98465.78;5115044;28;20288;-55
2023/06/11 06:58:18;;;;;;;16.17;15.48;;;;;;;-141.02;96.20;98216.03;5114899;28;20233;-55
2023/06/11 07:00:46;;;;;;;16.00;15.30;;;;;;;-141.02;100.00;98965.34;5115221;28;20237;-70
2023/06/11 07:03:14;;;;;;;15.98;15.27;;;;;;;-141.02;93.85;98465.78;5114817;28;20199;-55
2023/06/11 07:05:41;;;;;;;16.20;15.50;;;;;;;-141.02;92.59;97966.31;5115055;28;20194;-56
2023/06/11 07:08:11;;;;;;;16.50;15.80;;;;;;;-141.02;96.98;97466.91;5114752;28;20693;-56
2023/06/11 07:10:39;;;;;;;16.52;15.82;;;;;;;-141.02;95.16;97466.91;5114671;28;20212;-56
2023/06/11 07:13:09;;;;;;;16.25;15.55;;;;;;;-141.02;100.00;97966.31;5115003;28;20201;-55
2023/06/11 07:15:36;;;;;;;16.50;15.80;;;;;;;-141.02;100.00;97716.59;5115170;28;20197;-70
2023/06/11 07:18:03;;;;;;;16.58;15.77;;;;;;;-141.02;100.00;97466.91;5114518;28;20193;-70
2023/06/11 07:20:30;;;;;;;16.80;16.10;;;;;;;-141.02;98.20;97716.59;5114814;28;20307;-55
2023/06/11 07:22:59;;;;;;;16.65;15.95;;;;;;;-141.02;94.36;97217.22;5113845;28;20254;-55
2023/06/11 07:25:28;;;;;;;17.20;16.40;;;;;;;-141.02;94.55;97217.22;5114418;28;20251;-55
2023/06/11 07:27:55;;;;;;;16.27;15.57;;;;;;;-141.02;100.00;97966.31;5114664;28;20217;-56
2023/06/11 07:30:24;;;;;;;16.48;15.77;;;;;;;-141.02;96.86;97966.31;5114237;28;20327;-55
2023/06/11 07:32:52;;;;;;;17.38;16.58;;;;;;;-141.02;92.42;97466.91;5114235;28;20193;-69
2023/06/11 07:35:20;;;;;;;16.75;16.05;;;;;;;-141.02;95.50;98216.03;5114231;28;20193;-56
2023/06/11 07:37:47;;;;;;;16.90;16.10;;;;;;;-141.02;91.47;97716.59;5114166;28;20648;-56
2023/06/11 07:40:15;;;;;;;18.13;17.23;;;;;;;-141.02;87.51;97217.22;5114360;28;20297;-55
2023/06/11 07:42:43;;;;;;;17.50;16.60;;;;;;;-141.02;84.14;97217.22;5114408;28;20201;-69
2023/06/11 07:45:11;;;;;;;18.25;17.35;;;;;;;-141.02;83.81;97217.22;5113999;28;20264;-55
2023/06/11 07:47:41;;;;;;;18.25;17.35;;;;;;;-141.02;83.89;96967.56;5114184;28;20674;-56
2023/06/11 07:50:09;;;;;;;17.80;16.90;;;;;;;-141.02;87.82;97217.22;5114121;28;20717;-56
2023/06/11 07:52:36;;;;;;;19.00;17.90;;;;;;;-141.02;82.91;97217.22;5113836;28;20244;-55
2023/06/11 07:55:03;;;;;;;17.58;16.67;;;;;;;-141.02;85.67;97217.22;5113855;28;20702;-55
2023/06/11 07:57:31;;;;;;;17.60;16.80;;;;;;;-141.02;86.69;97466.91;5113774;28;20241;-55
2023/06/11 07:59:57;;;;;;;18.00;17.00;;;;;;;-141.02;78.80;95969.13;5113701;28;20197;-55
2023/06/11 08:02:24;;;;;;;17.65;16.83;;;;;;;-141.02;82.80;97217.22;5114005;27;20246;-55
2023/06/11 08:04:53;;;;;;;19.63;18.63;;;;;;;-141.02;73.37;95220.47;5113645;28;20668;-55
2023/06/11 08:07:20;;;;;;;19.55;18.55;;;;;;;-141.02;73.95;94222.50;5113618;28;20225;-55
2023/06/11 08:09:47;;;;;;;17.80;16.90;;;;;;;-141.02;79.99;95719.53;5113710;28;20686;-55
2023/06/11 08:12:14;;;;;;;18.55;17.55;;;;;;;-141.02;75.38;94471.97;5113534;28;20247;-69
2023/06/11 08:14:41;;;;;;;19.45;18.45;;;;;;;-141.02;73.90;94471.97;5113754;28;20189;-68
2023/06/11 08:17:09;;;;;;;19.13;18.13;;;;;;;-141.02;75.49;95470.00;5113724;28;20189;-56
2023/06/11 08:19:36;;;;;;;19.50;18.48;;;;;;;-141.02;67.99;94222.50;5113638;28;20215;-56
2023/06/11 08:22:05;;;;;;;20.85;19.65;;;;;;;-141.02;66.65;91728.88;5113575;28;20627;-56
2023/06/11 08:24:32;;;;;;;19.95;18.85;;;;;;;-141.02;71.71;93224.84;5113291;28;20284;-55
2023/06/11 08:26:59;;;;;;;20.30;19.10;;;;;;;-141.02;67.38;92227.47;5113484;28;20275;-55
2023/06/11 08:29:26;;;;;;;21.00;19.70;;;;;;;-141.02;64.96;89984.41;5113203;28;20292;-60
2023/06/11 08:31:53;;;;;;;21.27;20.00;;;;;;;-141.02;65.81;90482.72;5113420;28;20239;-63
2023/06/11 08:34:20;;;;;;;20.48;19.27;;;;;;;-141.02;65.14;89984.41;5112925;28;20236;-55
2023/06/11 08:36:47;;;;;;;21.58;20.27;;;;;;;-141.02;67.61;89237.03;5113031;28;20197;-55
2023/06/11 08:39:15;;;;;;;22.77;21.38;;;;;;;-141.02;59.71;85751.50;5112940;28;20190;-56
2023/06/11 08:41:43;;;;;;;22.50;21.20;;;;;;;-141.02;64.88;86000.34;5112963;28;20201;-69
2023/06/11 08:44:09;;;;;;;21.75;20.45;;;;;;;-141.02;66.47;85502.66;5112707;28;20670;-56
2023/06/11 08:46:36;;;;;;;22.00;20.70;;;;;;;-141.02;68.71;85253.84;5113207;28;20229;-62
2023/06/11 08:49:07;;;;;;;21.48;20.27;;;;;;;-141.02;70.56;85253.84;5113138;28;20595;-69
2023/06/11 08:51:36;;;;;;;21.40;20.20;;;;;;;-141.02;71.84;85005.03;5113037;28;20213;-70
2023/06/11 08:54:06;;;;;;;21.55;20.35;;;;;;;-141.02;72.14;84756.25;5113060;28;20280;-56
2023/06/11 08:56:35;;;;;;;21.35;20.15;;;;;;;-141.02;70.82;84010.03;5112733;28;20288;-55
2023/06/11 08:59:03;;;;;;;21.48;20.27;;;;;;;-141.02;69.43;83512.63;5112936;28;20280;-56
2023/06/11 09:01:30;;;;;;;22.13;20.92;;;;;;;-141.02;67.97;84507.50;5112612;28;20203;-56
2023/06/11 09:03:58;;;;;;;20.98;19.77;;;;;;;-141.02;66.54;85502.66;5112628;28;20193;-56
2023/06/11 09:06:25;;;;;;;22.35;21.05;;;;;;;-141.02;62.86;84756.25;5112697;28;20200;-56
2023/06/11 09:08:59;;;;;;;22.88;21.50;;;;;;;-141.02;59.54;82766.69;5112937;28;20659;-68
2023/06/11 09:11:32;;;;;;;22.77;21.48;;;;;;;-141.02;62.53;83015.31;5112762;28;20229;-56
2023/06/11 09:14:00;;;;;;;23.35;22.05;;;;;;;-141.02;62.79;82518.06;5113085;28;20185;-56
2023/06/11 09:16:27;;;;;;;24.23;22.83;;;;;;;-141.02;62.71;80529.75;5112929;28;20236;-56
2023/06/11 09:18:55;;;;;;;23.30;21.95;;;;;;;-141.02;63.78;80529.75;5112734;28;20251;-56
2023/06/11 09:21:25;;;;;;;23.38;22.08;;;;;;;-141.02;65.36;79536.03;5112645;28;20673;-69
2023/06/11 09:23:52;;;;;;;23.48;22.17;;;;;;;-141.02;64.95;79287.66;5112335;28;20200;-55
2023/06/11 09:26:19;;;;;;;22.95;21.65;;;;;;;-141.02;69.09;80281.31;5112684;28;20199;-56
2023/06/11 09:28:48;;;;;;;22.30;21.00;;;;;;;-141.02;69.85;80281.31;5112699;28;20211;-55
2023/06/11 09:31:20;;;;;;;21.95;20.70;;;;;;;-141.02;72.24;81026.72;5112539;28;20305;-69
2023/06/11 09:33:47;;;;;;;22.00;20.80;;;;;;;-141.02;71.41;80778.25;5112542;28;20205;-56
2023/06/11 09:36:18;;;;;;;21.05;19.85;;;;;;;-141.02;72.47;80529.75;5112226;28;20232;-69
2023/06/11 09:38:48;;;;;;;21.35;20.15;;;;;;;-141.02;71.44;80032.88;5112902;28;20196;-69
2023/06/11 09:41:15;;;;;;;21.98;20.77;;;;;;;-141.02;73.12;80281.31;5112199;28;20584;-69
2023/06/11 09:43:43;;;;;;;22.23;21.02;;;;;;;-141.02;74.03;80281.31;5112048;28;20236;-55
2023/06/11 09:46:11;;;;;;;21.00;19.88;;;;;;;-141.02;71.03;79536.03;5114910;28;20651;-55
2023/06/11 09:48:41;;;;;;;21.63;20.42;;;;;;;-141.02;73.24;80032.88;5116563;28;20292;-56
2023/06/11 09:51:08;;;;;;;21.70;20.50;;;;;;;-141.02;71.67;79784.44;5116175;28;20259;-57
2023/06/11 09:53:35;;;;;;;22.30;21.10;;;;;;;-141.02;75.50;80529.75;5116787;28;20628;-69
2023/06/11 09:56:02;;;;;;;22.25;21.05;;;;;;;-141.02;72.46;80032.88;5116245;28;20193;-55
2023/06/11 09:58:32;;;;;;;21.73;20.52;;;;;;;-141.02;72.48;80529.75;5116369;28;20280;-55
2023/06/11 10:01:00;;;;;;;22.20;21.00;;;;;;;-141.02;73.48;81275.25;5116372;28;20190;-55
2023/06/11 10:03:28;;;;;;;21.88;20.67;;;;;;;-141.02;68.28;80281.31;5116286;28;20201;-55
2023/06/11 10:05:56;;;;;;;21.95;20.75;;;;;;;-141.02;70.54;81275.25;5116279;28;20189;-55
2023/06/11 10:08:28;;;;;;;21.67;20.48;;;;;;;-141.02;71.74;82518.06;5116004;27;20215;-55
2023/06/11 10:10:56;;;;;;;21.33;20.13;;;;;;;-141.02;72.80;84258.75;5115866;28;20224;-56
2023/06/11 10:13:30;;;;;;;22.52;21.23;;;;;;;-141.02;68.35;83512.63;5116158;28;20201;-56
2023/06/11 10:15:59;;;;;;;23.15;21.85;;;;;;;-141.02;66.68;83512.63;5115789;28;20283;-56
2023/06/11 10:18:26;;;;;;;22.27;20.98;;;;;;;-141.02;65.82;83263.97;5116075;28;20228;-68
2023/06/11 10:20:54;;;;;;;22.38;21.08;;;;;;;-141.02;64.47;83015.31;5115727;28;20258;-56
2023/06/11 10:23:23;;;;;;;23.95;22.55;;;;;;;-141.02;62.65;83015.31;5115647;28;20661;-56
2023/06/11 10:25:54;;;;;;;22.48;21.17;;;;;;;-141.02;62.62;84507.50;5115576;28;20627;-56
2023/06/11 10:28:34;;;;;;;23.17;21.77;;;;;;;-141.02;56.18;82269.47;5115866;28;20231;-56
2023/06/11 10:31:01;;;;;;;22.80;21.50;;;;;;;-141.02;58.97;84010.03;5115436;28;20295;-56
2023/06/11 10:33:43;;;;;;;27.02;25.40;;;;;;;-141.02;58.27;82518.06;5115737;28;20193;-56
2023/06/11 10:36:10;;;;;;;24.40;23.00;;;;;;;-141.02;58.53;82518.06;5115699;28;20192;-56
2023/06/11 10:38:39;;;;;;;25.52;24.02;;;;;;;-141.02;56.62;79784.44;5115720;28;20622;-55
2023/06/11 10:41:06;;;;;;;25.75;24.25;;;;;;;-141.02;57.99;79039.28;5115324;28;20244;-56
2023/06/11 10:43:37;;;;;;;24.27;22.88;;;;;;;-141.02;57.18;76804.81;5115240;28;20201;-62
2023/06/11 10:46:11;;;;;;;25.88;24.38;;;;;;;-141.02;59.69;74819.81;5115851;28;20277;-55
2023/06/11 10:48:49;;;;;;;25.83;24.33;;;;;;;-141.02;61.52;76308.44;5115235;28;20197;-55
2023/06/11 10:51:17;;;;;;;25.23;23.83;;;;;;;-141.02;59.80;75812.16;5115448;28;20217;-56
2023/06/11 10:53:55;;;;;;;23.83;22.42;;;;;;;-141.02;59.57;75315.94;5115036;28;20710;-56
2023/06/11 10:56:23;;;;;;;24.67;23.27;;;;;;;-141.02;59.63;75067.88;5114327;28;20185;-56
2023/06/11 10:58:51;;;;;;;23.63;22.23;;;;;;;-141.02;60.24;73827.72;5114727;28;20287;-56
2023/06/11 11:01:20;;;;;;;24.15;22.75;;;;;;;-141.02;58.45;72092.31;5114964;28;20291;-55